createdAt,value
2017-09-05T00:00:24.743Z,0
2017-09-05T00:01:34.329Z,0
2017-09-05T00:02:43.616Z,0
2017-09-05T00:03:52.893Z,0
2017-09-05T00:05:01.548Z,0
2017-09-05T00:06:10.824Z,0
2017-09-05T00:07:20.089Z,0
2017-09-05T00:08:29.056Z,0
2017-09-05T00:09:38.027Z,0
2017-09-05T00:10:46.696Z,0
2017-09-05T00:11:55.376Z,0
2017-09-05T00:13:04.184Z,0
2017-09-05T00:14:13.461Z,0
2017-09-05T00:15:22.732Z,0
2017-09-05T00:16:31.700Z,0
2017-09-05T00:17:40.981Z,0
2017-09-05T00:18:49.778Z,0
2017-09-05T00:19:59.112Z,0
2017-09-05T00:21:08.404Z,0
2017-09-05T00:22:17.055Z,0
2017-09-05T00:23:26.380Z,0
2017-09-05T00:24:35.441Z,0
2017-09-05T00:25:44.413Z,0
2017-09-05T00:26:53.058Z,0
2017-09-05T00:28:02.021Z,0
2017-09-05T00:29:10.662Z,0
2017-09-05T00:30:19.318Z,0
2017-09-05T00:31:27.965Z,0
2017-09-05T00:32:36.938Z,0
2017-09-05T00:33:46.525Z,0
2017-09-05T00:34:55.185Z,0
2017-09-05T00:36:03.828Z,0
2017-09-05T00:37:12.801Z,0
2017-09-05T00:38:21.783Z,0
2017-09-05T00:39:31.051Z,0
2017-09-05T00:40:40.022Z,0
2017-09-05T00:41:49.034Z,0
2017-09-05T00:42:57.693Z,0
2017-09-05T00:44:06.337Z,0
2017-09-05T00:45:15.607Z,0
2017-09-05T00:46:24.562Z,0
2017-09-05T00:47:33.582Z,0
2017-09-05T00:48:42.856Z,0
2017-09-05T00:49:51.819Z,0
2017-09-05T00:51:00.784Z,0
2017-09-05T00:52:09.756Z,0
2017-09-05T00:53:18.774Z,0
2017-09-05T00:54:27.766Z,0
2017-09-05T00:55:36.726Z,0
2017-09-05T00:56:46.014Z,0
2017-09-05T00:57:54.977Z,0
2017-09-05T00:59:04.710Z,0
2017-09-05T01:00:13.991Z,0
2017-09-05T01:01:22.957Z,0
2017-09-05T01:02:31.918Z,0
2017-09-05T01:03:40.877Z,0
2017-09-05T01:04:49.952Z,0
2017-09-05T01:05:58.612Z,0
2017-09-05T01:07:07.890Z,0
2017-09-05T01:08:17.518Z,0
2017-09-05T01:09:26.809Z,0
2017-09-05T01:10:36.496Z,0
2017-09-05T01:11:46.105Z,0
2017-09-05T01:12:55.064Z,0
2017-09-05T01:14:04.353Z,0
2017-09-05T01:15:13.622Z,0
2017-09-05T01:16:22.616Z,0
2017-09-05T01:17:31.567Z,0
2017-09-05T01:18:40.854Z,0
2017-09-05T01:19:49.502Z,0
2017-09-05T01:20:58.787Z,0
2017-09-05T01:22:07.848Z,0
2017-09-05T01:23:16.816Z,0
2017-09-05T01:24:26.091Z,0
2017-09-05T01:25:34.740Z,0
2017-09-05T01:26:44.639Z,0
2017-09-05T01:27:53.448Z,0
2017-09-05T01:29:02.097Z,0
2017-09-05T01:30:10.742Z,0
2017-09-05T01:31:19.388Z,0
2017-09-05T01:32:28.673Z,0
2017-09-05T01:33:37.641Z,0
2017-09-05T01:34:46.285Z,0
2017-09-05T01:35:54.943Z,0
2017-09-05T01:37:03.910Z,0
2017-09-05T01:38:13.507Z,0
2017-09-05T01:39:22.205Z,0
2017-09-05T01:40:31.483Z,0
2017-09-05T01:41:40.783Z,0
2017-09-05T01:42:49.743Z,0
2017-09-05T01:43:58.700Z,0
2017-09-05T01:45:07.767Z,0
2017-09-05T01:46:17.040Z,0
2017-09-05T01:47:25.703Z,0
2017-09-05T01:48:34.991Z,0
2017-09-05T01:49:44.622Z,0
2017-09-05T01:50:54.050Z,0
2017-09-05T01:52:02.701Z,0
2017-09-05T01:53:11.669Z,0
2017-09-05T01:54:21.273Z,0
2017-09-05T01:55:30.252Z,0
2017-09-05T01:56:39.546Z,0
2017-09-05T01:57:48.508Z,0
2017-09-05T01:58:57.780Z,0
2017-09-05T02:00:06.742Z,0
2017-09-05T02:01:16.018Z,0
2017-09-05T02:02:25.709Z,0
2017-09-05T02:03:34.364Z,0
2017-09-05T02:04:43.332Z,0
2017-09-05T02:05:52.035Z,0
2017-09-05T02:07:01.000Z,0
2017-09-05T02:08:10.445Z,0
2017-09-05T02:09:19.397Z,0
2017-09-05T02:10:29.305Z,0
2017-09-05T02:11:38.604Z,0
2017-09-05T02:12:47.565Z,0
2017-09-05T02:13:56.843Z,0
2017-09-05T02:15:06.442Z,0
2017-09-05T02:16:15.094Z,0
2017-09-05T02:17:24.065Z,0
2017-09-05T02:18:32.720Z,0
2017-09-05T02:19:41.463Z,0
2017-09-05T02:20:50.109Z,0
2017-09-05T02:21:58.756Z,0
2017-09-05T02:23:07.411Z,0
2017-09-05T02:24:16.681Z,0
2017-09-05T02:25:25.380Z,0
2017-09-05T02:26:34.655Z,0
2017-09-05T02:27:43.930Z,0
2017-09-05T02:28:53.522Z,0
2017-09-05T02:30:03.119Z,0
2017-09-05T02:31:11.868Z,0
2017-09-05T02:32:20.841Z,0
2017-09-05T02:33:30.129Z,0
2017-09-05T02:34:39.092Z,0
2017-09-05T02:35:48.391Z,0
2017-09-05T02:36:57.134Z,0
2017-09-05T02:38:05.795Z,0
2017-09-05T02:39:15.065Z,0
2017-09-05T02:40:24.029Z,0
2017-09-05T02:41:33.634Z,0
2017-09-05T02:42:43.326Z,0
2017-09-05T02:43:52.287Z,0
2017-09-05T02:45:00.939Z,0
2017-09-05T02:46:09.615Z,0
2017-09-05T02:47:18.912Z,0
2017-09-05T02:48:27.929Z,0
2017-09-05T02:49:37.205Z,0
2017-09-05T02:50:46.493Z,0
2017-09-05T02:51:55.454Z,0
2017-09-05T02:53:04.429Z,0
2017-09-05T02:54:14.208Z,0
2017-09-05T02:55:23.495Z,0
2017-09-05T02:56:32.145Z,0
2017-09-05T02:57:41.112Z,0
2017-09-05T02:58:50.399Z,0
2017-09-05T02:59:59.132Z,0
2017-09-05T03:01:08.717Z,0
2017-09-05T03:02:17.680Z,0
2017-09-05T03:03:26.952Z,0
2017-09-05T03:04:36.223Z,0
2017-09-05T03:05:45.600Z,0
2017-09-05T03:06:54.569Z,0
2017-09-05T03:08:03.534Z,0
2017-09-05T03:09:12.508Z,0
2017-09-05T03:10:21.475Z,0
2017-09-05T03:11:31.172Z,0
2017-09-05T03:12:40.135Z,0
2017-09-05T03:13:48.808Z,0
2017-09-05T03:14:58.079Z,0
2017-09-05T03:16:07.042Z,0
2017-09-05T03:17:17.063Z,0
2017-09-05T03:18:26.330Z,0
2017-09-05T03:19:34.975Z,0
2017-09-05T03:20:43.947Z,0
2017-09-05T03:21:52.900Z,0
2017-09-05T03:23:02.009Z,0
2017-09-05T03:24:10.969Z,0
2017-09-05T03:25:19.612Z,0
2017-09-05T03:26:29.513Z,0
2017-09-05T03:27:38.147Z,0
2017-09-05T03:28:46.803Z,0
2017-09-05T03:29:55.766Z,0
2017-09-05T03:31:05.677Z,0
2017-09-05T03:32:15.008Z,0
2017-09-05T03:33:23.971Z,0
2017-09-05T03:34:32.629Z,0
2017-09-05T03:35:41.584Z,0
2017-09-05T03:36:51.168Z,0
2017-09-05T03:38:00.140Z,0
2017-09-05T03:39:08.782Z,0
2017-09-05T03:40:17.440Z,0
2017-09-05T03:41:26.101Z,0
2017-09-05T03:42:35.382Z,0
2017-09-05T03:43:44.655Z,0
2017-09-05T03:44:53.314Z,0
2017-09-05T03:46:02.668Z,0
2017-09-05T03:47:11.633Z,0
2017-09-05T03:48:20.284Z,0
2017-09-05T03:49:29.245Z,0
2017-09-05T03:50:38.531Z,0
2017-09-05T03:51:47.688Z,0
2017-09-05T03:52:57.243Z,0
2017-09-05T03:54:06.206Z,0
2017-09-05T03:55:15.166Z,0
2017-09-05T03:56:24.125Z,0
2017-09-05T03:57:33.137Z,0
2017-09-05T03:58:42.087Z,0
2017-09-05T03:59:51.679Z,0
2017-09-05T04:01:00.668Z,0
2017-09-05T04:02:09.625Z,0
2017-09-05T04:03:19.366Z,0
2017-09-05T04:04:28.357Z,0
2017-09-05T04:05:37.340Z,0
2017-09-05T04:06:46.306Z,0
2017-09-05T04:07:55.589Z,0
2017-09-05T04:09:04.429Z,0
2017-09-05T04:10:13.696Z,0
2017-09-05T04:11:22.357Z,0
2017-09-05T04:12:31.628Z,0
2017-09-05T04:13:40.298Z,0
2017-09-05T04:14:49.033Z,0
2017-09-05T04:15:57.673Z,0
2017-09-05T04:17:06.443Z,0
2017-09-05T04:18:15.420Z,0
2017-09-05T04:19:24.691Z,0
2017-09-05T04:20:33.492Z,0
2017-09-05T04:21:43.080Z,0
2017-09-05T04:22:52.352Z,0
2017-09-05T04:24:01.323Z,0
2017-09-05T04:25:10.740Z,0
2017-09-05T04:26:19.825Z,0
2017-09-05T04:27:28.784Z,0
2017-09-05T04:28:38.161Z,0
2017-09-05T04:29:47.779Z,0
2017-09-05T04:30:56.769Z,0
2017-09-05T04:32:05.567Z,0
2017-09-05T04:33:14.873Z,0
2017-09-05T04:34:23.563Z,0
2017-09-05T04:35:32.608Z,0
2017-09-05T04:36:41.275Z,0
2017-09-05T04:37:50.391Z,0
2017-09-05T04:38:59.033Z,0
2017-09-05T04:40:07.997Z,0
2017-09-05T04:41:16.977Z,0
2017-09-05T04:42:25.941Z,0
2017-09-05T04:43:35.321Z,0
2017-09-05T04:44:44.293Z,0
2017-09-05T04:45:52.951Z,0
2017-09-05T04:47:01.613Z,0
2017-09-05T04:48:10.573Z,0
2017-09-05T04:49:20.477Z,0
2017-09-05T04:50:29.467Z,0
2017-09-05T04:51:38.117Z,0
2017-09-05T04:52:46.772Z,0
2017-09-05T04:53:56.156Z,0
2017-09-05T04:55:05.279Z,0
2017-09-05T04:56:14.246Z,0
2017-09-05T04:57:22.883Z,0
2017-09-05T04:58:31.537Z,0
2017-09-05T04:59:40.817Z,0
2017-09-05T05:00:50.140Z,0
2017-09-05T05:01:59.100Z,0
2017-09-05T05:03:08.699Z,0
2017-09-05T05:04:17.678Z,0
2017-09-05T05:05:26.640Z,0
2017-09-05T05:06:36.068Z,0
2017-09-05T05:07:44.703Z,0
2017-09-05T05:08:53.654Z,0
2017-09-05T05:10:02.330Z,0
2017-09-05T05:11:11.648Z,0
2017-09-05T05:12:20.613Z,0
2017-09-05T05:13:29.950Z,0
2017-09-05T05:14:39.721Z,0
2017-09-05T05:15:48.495Z,0
2017-09-05T05:16:57.448Z,0
2017-09-05T05:18:06.783Z,0
2017-09-05T05:19:15.436Z,0
2017-09-05T05:20:24.404Z,0
2017-09-05T05:21:34.025Z,0
2017-09-05T05:22:42.979Z,0
2017-09-05T05:23:52.505Z,0
2017-09-05T05:25:02.245Z,0
2017-09-05T05:26:11.639Z,5
2017-09-05T05:27:20.935Z,5
2017-09-05T05:28:30.204Z,5
2017-09-05T05:29:39.230Z,5
2017-09-05T05:30:47.878Z,5
2017-09-05T05:31:57.461Z,5
2017-09-05T05:33:06.745Z,5
2017-09-05T05:34:16.354Z,5
2017-09-05T05:35:25.111Z,5
2017-09-05T05:36:34.145Z,5
2017-09-05T05:37:43.789Z,5
2017-09-05T05:38:53.082Z,5
2017-09-05T05:40:02.523Z,5
2017-09-05T05:41:12.039Z,5
2017-09-05T05:42:21.020Z,5
2017-09-05T05:43:30.406Z,5
2017-09-05T05:44:40.615Z,5
2017-09-05T05:45:50.517Z,5
2017-09-05T05:46:59.970Z,5
2017-09-05T05:48:09.049Z,5
2017-09-05T05:49:18.021Z,10
2017-09-05T05:50:26.986Z,10
2017-09-05T05:51:35.809Z,10
2017-09-05T05:52:45.566Z,5
2017-09-05T05:53:54.515Z,10
2017-09-05T05:55:03.174Z,10
2017-09-05T05:56:12.150Z,10
2017-09-05T05:57:21.123Z,10
2017-09-05T05:58:30.240Z,10
2017-09-05T05:59:39.220Z,15
2017-09-05T06:00:48.864Z,15
2017-09-05T06:01:57.526Z,15
2017-09-05T06:03:06.814Z,10
2017-09-05T06:04:15.816Z,10
2017-09-05T06:05:24.792Z,10
2017-09-05T06:06:33.761Z,10
2017-09-05T06:07:43.101Z,10
2017-09-05T06:08:52.384Z,10
2017-09-05T06:10:02.226Z,10
2017-09-05T06:11:11.553Z,15
2017-09-05T06:12:20.535Z,15
2017-09-05T06:13:30.069Z,15
2017-09-05T06:14:39.328Z,15
2017-09-05T06:15:50.585Z,15
2017-09-05T06:16:59.336Z,15
2017-09-05T06:18:08.945Z,20
2017-09-05T06:19:17.913Z,20
2017-09-05T06:20:26.871Z,15
2017-09-05T06:21:35.614Z,15
2017-09-05T06:22:44.906Z,15
2017-09-05T06:23:53.558Z,15
2017-09-05T06:25:02.506Z,20
2017-09-05T06:26:11.152Z,20
2017-09-05T06:27:19.917Z,20
2017-09-05T06:28:28.880Z,25
2017-09-05T06:29:37.532Z,30
2017-09-05T06:30:46.491Z,30
2017-09-05T06:31:55.772Z,35
2017-09-05T06:33:04.567Z,35
2017-09-05T06:34:13.533Z,35
2017-09-05T06:35:22.194Z,35
2017-09-05T06:36:31.523Z,35
2017-09-05T06:37:40.169Z,35
2017-09-05T06:38:49.282Z,35
2017-09-05T06:39:58.241Z,40
2017-09-05T06:41:07.194Z,45
2017-09-05T06:42:16.459Z,45
2017-09-05T06:43:26.087Z,45
2017-09-05T06:44:34.845Z,45
2017-09-05T06:45:43.836Z,45
2017-09-05T06:46:53.157Z,50
2017-09-05T06:48:02.110Z,45
2017-09-05T06:49:11.391Z,45
2017-09-05T06:50:21.097Z,40
2017-09-05T06:51:30.118Z,35
2017-09-05T06:52:39.094Z,40
2017-09-05T06:53:48.432Z,40
2017-09-05T06:54:57.097Z,35
2017-09-05T06:56:06.479Z,35
2017-09-05T06:57:15.762Z,35
2017-09-05T06:58:24.400Z,35
2017-09-05T06:59:33.379Z,40
2017-09-05T07:00:42.342Z,45
2017-09-05T07:01:51.956Z,50
2017-09-05T07:03:02.649Z,50
2017-09-05T07:04:11.648Z,45
2017-09-05T07:05:21.390Z,40
2017-09-05T07:06:30.824Z,35
2017-09-05T07:07:40.582Z,35
2017-09-05T07:08:49.619Z,30
2017-09-05T07:09:58.282Z,25
2017-09-05T07:11:07.260Z,20
2017-09-05T07:12:15.909Z,15
2017-09-05T07:13:25.658Z,15
2017-09-05T07:14:34.626Z,15
2017-09-05T07:15:43.582Z,15
2017-09-05T07:16:52.545Z,20
2017-09-05T07:18:01.498Z,25
2017-09-05T07:19:10.522Z,35
2017-09-05T07:20:19.496Z,45
2017-09-05T07:21:28.480Z,50
2017-09-05T07:22:37.444Z,50
2017-09-05T07:23:46.462Z,45
2017-09-05T07:24:55.506Z,45
2017-09-05T07:26:04.161Z,40
2017-09-05T07:27:13.118Z,45
2017-09-05T07:28:22.716Z,55
2017-09-05T07:29:32.308Z,55
2017-09-05T07:30:41.334Z,55
2017-09-05T07:31:50.310Z,55
2017-09-05T07:32:58.961Z,60
2017-09-05T07:34:08.255Z,60
2017-09-05T07:35:17.210Z,65
2017-09-05T07:36:26.006Z,70
2017-09-05T07:37:34.651Z,65
2017-09-05T07:38:43.623Z,65
2017-09-05T07:39:52.591Z,60
2017-09-05T07:41:01.892Z,50
2017-09-05T07:42:10.536Z,40
2017-09-05T07:43:20.444Z,40
2017-09-05T07:44:29.404Z,45
2017-09-05T07:45:39.037Z,55
2017-09-05T07:46:48.307Z,65
2017-09-05T07:47:57.433Z,75
2017-09-05T07:49:06.396Z,75
2017-09-05T07:50:15.040Z,80
2017-09-05T07:51:24.311Z,80
2017-09-05T07:52:32.950Z,75
2017-09-05T07:53:42.004Z,65
2017-09-05T07:54:50.959Z,60
2017-09-05T07:56:00.247Z,55
2017-09-05T07:57:10.148Z,60
2017-09-05T07:58:19.113Z,70
2017-09-05T07:59:28.443Z,75
2017-09-05T08:00:37.405Z,70
2017-09-05T08:01:46.376Z,70
2017-09-05T08:02:55.341Z,80
2017-09-05T08:04:04.941Z,85
2017-09-05T08:05:14.012Z,85
2017-09-05T08:06:22.668Z,85
2017-09-05T08:07:32.010Z,90
2017-09-05T08:08:40.981Z,100
2017-09-05T08:09:49.941Z,105
2017-09-05T08:10:58.935Z,110
2017-09-05T08:12:07.907Z,110
2017-09-05T08:13:16.561Z,115
2017-09-05T08:14:25.220Z,110
2017-09-05T08:15:34.186Z,100
2017-09-05T08:16:43.933Z,95
2017-09-05T08:17:53.222Z,85
2017-09-05T08:19:02.513Z,85
2017-09-05T08:20:11.167Z,90
2017-09-05T08:21:20.135Z,75
2017-09-05T08:22:29.575Z,75
2017-09-05T08:23:38.584Z,105
2017-09-05T08:24:47.253Z,100
2017-09-05T08:25:56.225Z,95
2017-09-05T08:27:04.907Z,90
2017-09-05T08:28:14.633Z,75
2017-09-05T08:29:23.293Z,80
2017-09-05T08:30:32.260Z,85
2017-09-05T08:31:40.918Z,90
2017-09-05T08:32:49.893Z,85
2017-09-05T08:33:58.706Z,65
2017-09-05T08:35:07.358Z,65
2017-09-05T08:36:16.339Z,60
2017-09-05T08:37:25.304Z,60
2017-09-05T08:38:34.268Z,75
2017-09-05T08:39:43.384Z,80
2017-09-05T08:40:52.042Z,80
2017-09-05T08:42:01.023Z,90
2017-09-05T08:43:10.009Z,95
2017-09-05T08:44:18.982Z,85
2017-09-05T08:45:28.103Z,95
2017-09-05T08:46:37.401Z,110
2017-09-05T08:47:46.380Z,105
2017-09-05T08:48:55.333Z,95
2017-09-05T08:50:03.988Z,90
2017-09-05T08:51:12.636Z,75
2017-09-05T08:52:22.240Z,70
2017-09-05T08:53:30.891Z,60
2017-09-05T08:54:40.191Z,55
2017-09-05T08:55:49.171Z,50
2017-09-05T08:56:58.320Z,45
2017-09-05T08:58:07.295Z,40
2017-09-05T08:59:16.253Z,40
2017-09-05T09:00:25.843Z,40
2017-09-05T09:01:35.438Z,35
2017-09-05T09:02:44.477Z,35
2017-09-05T09:03:53.756Z,35
2017-09-05T09:05:03.050Z,30
2017-09-05T09:06:11.705Z,30
2017-09-05T09:07:20.674Z,30
2017-09-05T09:08:29.848Z,30
2017-09-05T09:09:39.143Z,30
2017-09-05T09:10:48.435Z,30
2017-09-05T09:11:57.104Z,30
2017-09-05T09:13:07.053Z,30
2017-09-05T09:14:16.112Z,25
2017-09-05T09:15:24.771Z,25
2017-09-05T09:16:33.735Z,25
2017-09-05T09:17:42.393Z,25
2017-09-05T09:19:23.446Z,30
2017-09-05T09:20:33.053Z,40
2017-09-05T09:21:41.707Z,45
2017-09-05T09:22:51.002Z,50
2017-09-05T09:23:59.978Z,55
2017-09-05T09:25:09.260Z,50
2017-09-05T09:26:18.549Z,50
2017-09-05T09:27:27.822Z,40
2017-09-05T09:28:36.781Z,35
2017-09-05T09:29:45.449Z,30
2017-09-05T09:30:54.729Z,25
2017-09-05T09:32:03.709Z,25
2017-09-05T09:33:12.725Z,25
2017-09-05T09:34:21.682Z,25
2017-09-05T09:35:30.677Z,25
2017-09-05T09:36:39.702Z,25
2017-09-05T09:37:48.670Z,25
2017-09-05T09:38:57.643Z,25
2017-09-05T09:40:06.306Z,25
2017-09-05T09:41:15.270Z,25
2017-09-05T09:42:24.306Z,25
2017-09-05T09:43:33.578Z,25
2017-09-05T09:44:42.224Z,30
2017-09-05T09:45:51.813Z,25
2017-09-05T09:47:01.099Z,30
2017-09-05T09:48:09.756Z,30
2017-09-05T09:49:18.788Z,35
2017-09-05T09:50:27.761Z,35
2017-09-05T09:51:37.682Z,45
2017-09-05T09:52:46.641Z,45
2017-09-05T09:53:55.621Z,40
2017-09-05T09:55:04.929Z,30
2017-09-05T09:56:14.550Z,35
2017-09-05T09:57:23.512Z,35
2017-09-05T09:58:32.803Z,30
2017-09-05T09:59:42.092Z,25
2017-09-05T10:00:51.379Z,30
2017-09-05T10:02:00.668Z,35
2017-09-05T10:03:09.319Z,35
2017-09-05T10:04:18.309Z,40
2017-09-05T10:05:28.248Z,30
2017-09-05T10:06:37.578Z,30
2017-09-05T10:07:46.892Z,25
2017-09-05T10:08:55.553Z,25
2017-09-05T10:10:04.515Z,35
2017-09-05T10:11:13.496Z,30
2017-09-05T10:12:22.153Z,25
2017-09-05T10:13:31.439Z,20
2017-09-05T10:14:40.418Z,20
2017-09-05T10:15:49.702Z,20
2017-09-05T10:16:58.988Z,20
2017-09-05T10:18:08.269Z,20
2017-09-05T10:19:16.927Z,20
2017-09-05T10:20:26.210Z,20
2017-09-05T10:21:35.505Z,20
2017-09-05T10:22:44.485Z,20
2017-09-05T10:23:53.764Z,20
2017-09-05T10:25:02.727Z,20
2017-09-05T10:26:12.641Z,20
2017-09-05T10:27:21.920Z,20
2017-09-05T10:28:31.208Z,30
2017-09-05T10:29:40.819Z,35
2017-09-05T10:30:49.787Z,30
2017-09-05T10:31:59.133Z,30
2017-09-05T10:33:08.094Z,30
2017-09-05T10:34:17.691Z,40
2017-09-05T10:35:26.658Z,40
2017-09-05T10:36:35.651Z,45
2017-09-05T10:37:44.294Z,50
2017-09-05T10:38:53.270Z,50
2017-09-05T10:40:02.402Z,50
2017-09-05T10:41:11.073Z,45
2017-09-05T10:42:19.743Z,45
2017-09-05T10:43:28.713Z,50
2017-09-05T10:44:38.330Z,50
2017-09-05T10:45:47.317Z,45
2017-09-05T10:46:56.277Z,45
2017-09-05T10:48:04.953Z,50
2017-09-05T10:49:13.622Z,55
2017-09-05T10:50:22.593Z,60
2017-09-05T10:51:31.899Z,60
2017-09-05T10:52:40.554Z,65
2017-09-05T10:53:50.483Z,65
2017-09-05T10:54:59.137Z,60
2017-09-05T10:56:07.819Z,60
2017-09-05T10:57:17.183Z,55
2017-09-05T10:58:26.147Z,55
2017-09-05T10:59:35.736Z,55
2017-09-05T11:00:45.060Z,55
2017-09-05T11:01:54.671Z,55
2017-09-05T11:03:03.978Z,55
2017-09-05T11:04:13.262Z,55
2017-09-05T11:05:21.915Z,50
2017-09-05T11:06:31.505Z,50
2017-09-05T11:07:40.173Z,45
2017-09-05T11:08:50.117Z,40
2017-09-05T11:09:59.708Z,35
2017-09-05T11:11:08.674Z,30
2017-09-05T11:12:18.274Z,30
2017-09-05T11:13:27.564Z,25
2017-09-05T11:14:36.908Z,25
2017-09-05T11:15:46.188Z,25
2017-09-05T11:16:54.866Z,25
2017-09-05T11:18:04.167Z,25
2017-09-05T11:19:13.140Z,30
2017-09-05T11:20:21.793Z,35
2017-09-05T11:21:31.401Z,35
2017-09-05T11:22:40.055Z,40
2017-09-05T11:23:48.708Z,40
2017-09-05T11:24:58.309Z,30
2017-09-05T11:26:06.962Z,30
2017-09-05T11:27:15.926Z,25
2017-09-05T11:28:24.892Z,30
2017-09-05T11:29:33.542Z,30
2017-09-05T11:30:42.843Z,30
2017-09-05T11:31:51.807Z,30
2017-09-05T11:33:00.476Z,30
2017-09-05T11:34:10.065Z,30
2017-09-05T11:35:19.045Z,30
2017-09-05T11:36:28.022Z,30
2017-09-05T11:37:37.306Z,35
2017-09-05T11:38:45.957Z,35
2017-09-05T11:39:54.948Z,30
2017-09-05T11:41:04.239Z,25
2017-09-05T11:42:13.531Z,25
2017-09-05T11:43:22.499Z,25
2017-09-05T11:44:31.787Z,30
2017-09-05T11:45:40.746Z,30
2017-09-05T11:46:49.711Z,30
2017-09-05T11:47:58.681Z,25
2017-09-05T11:49:07.957Z,25
2017-09-05T11:50:16.938Z,20
2017-09-05T11:51:25.926Z,15
2017-09-05T11:52:34.896Z,15
2017-09-05T11:53:43.871Z,15
2017-09-05T11:54:52.833Z,15
2017-09-05T11:56:02.124Z,10
2017-09-05T11:57:10.768Z,10
2017-09-05T11:58:19.741Z,10
2017-09-05T11:59:28.700Z,10
2017-09-05T12:00:37.356Z,10
2017-09-05T12:01:46.652Z,10
2017-09-05T12:02:55.630Z,15
2017-09-05T12:04:04.293Z,15
2017-09-05T12:05:13.578Z,20
2017-09-05T12:06:22.548Z,30
2017-09-05T12:07:31.828Z,30
2017-09-05T12:08:40.800Z,35
2017-09-05T12:09:49.477Z,35
2017-09-05T12:10:58.436Z,35
2017-09-05T12:12:08.038Z,35
2017-09-05T12:13:17.649Z,35
2017-09-05T12:14:27.265Z,30
2017-09-05T12:15:36.556Z,25
2017-09-05T12:16:46.138Z,20
2017-09-05T12:17:55.434Z,25
2017-09-05T12:19:04.408Z,30
2017-09-05T12:20:13.995Z,25
2017-09-05T12:21:22.967Z,20
2017-09-05T12:22:31.930Z,15
2017-09-05T12:23:41.041Z,15
2017-09-05T12:24:49.697Z,15
2017-09-05T12:25:58.991Z,10
2017-09-05T12:27:07.977Z,10
2017-09-05T12:28:16.952Z,10
2017-09-05T12:29:25.607Z,10
2017-09-05T12:30:34.326Z,5
2017-09-05T12:31:43.296Z,5
2017-09-05T12:32:52.329Z,5
2017-09-05T12:34:00.994Z,10
2017-09-05T12:35:09.968Z,10
2017-09-05T12:36:19.249Z,10
2017-09-05T12:37:28.224Z,5
2017-09-05T12:38:36.876Z,5
2017-09-05T12:39:46.222Z,5
2017-09-05T12:40:55.820Z,5
2017-09-05T12:42:05.735Z,5
2017-09-05T12:43:15.031Z,5
2017-09-05T12:44:23.999Z,5
2017-09-05T12:45:33.302Z,0
2017-09-05T12:46:42.264Z,0
2017-09-05T12:47:51.556Z,0
2017-09-05T12:49:00.220Z,0
2017-09-05T12:50:09.831Z,0
2017-09-05T12:51:19.134Z,0
2017-09-05T12:52:27.807Z,0
2017-09-05T12:53:37.096Z,0
2017-09-05T12:54:46.368Z,0
2017-09-05T12:55:55.657Z,0
2017-09-05T12:57:04.380Z,5
2017-09-05T12:58:13.030Z,5
2017-09-05T12:59:21.991Z,5
2017-09-05T13:00:30.653Z,5
2017-09-05T13:01:39.327Z,5
2017-09-05T13:02:47.984Z,5
2017-09-05T13:03:56.949Z,5
2017-09-05T13:05:05.916Z,5
2017-09-05T13:06:15.218Z,5
2017-09-05T13:07:23.868Z,5
2017-09-05T13:08:32.538Z,10
2017-09-05T13:09:41.549Z,10
2017-09-05T13:10:50.526Z,10
2017-09-05T13:11:59.817Z,10
2017-09-05T13:13:09.432Z,10
2017-09-05T13:14:18.410Z,10
2017-09-05T13:15:27.383Z,15
2017-09-05T13:16:36.038Z,15
2017-09-05T13:17:45.020Z,15
2017-09-05T13:18:54.627Z,20
2017-09-05T13:20:03.270Z,20
2017-09-05T13:21:12.866Z,25
2017-09-05T13:22:21.829Z,30
2017-09-05T13:23:31.106Z,30
2017-09-05T13:24:40.097Z,35
2017-09-05T13:25:48.751Z,40
2017-09-05T13:26:58.031Z,45
2017-09-05T13:28:07.333Z,45
2017-09-05T13:29:16.320Z,45
2017-09-05T13:30:25.622Z,45
2017-09-05T13:31:35.562Z,45
2017-09-05T13:32:44.839Z,40
2017-09-05T13:33:54.128Z,40
2017-09-05T13:35:03.085Z,35
2017-09-05T13:36:11.870Z,35
2017-09-05T13:37:20.526Z,35
2017-09-05T13:38:29.521Z,35
2017-09-05T13:39:38.641Z,35
2017-09-05T13:40:48.001Z,40
2017-09-05T13:41:56.974Z,40
2017-09-05T13:43:06.269Z,40
2017-09-05T13:44:15.239Z,40
2017-09-05T13:45:24.842Z,40
2017-09-05T13:46:33.532Z,35
2017-09-05T13:47:42.866Z,30
2017-09-05T13:48:51.534Z,30
2017-09-05T13:50:00.847Z,35
2017-09-05T13:51:09.501Z,35
2017-09-05T13:52:18.480Z,30
2017-09-05T13:53:27.603Z,30
2017-09-05T13:54:36.919Z,30
2017-09-05T13:55:46.554Z,30
2017-09-05T13:56:55.542Z,30
2017-09-05T13:58:04.538Z,25
2017-09-05T13:59:13.504Z,25
2017-09-05T14:00:23.109Z,25
2017-09-05T14:01:31.775Z,25
2017-09-05T14:02:40.734Z,25
2017-09-05T14:03:50.016Z,20
2017-09-05T14:04:58.982Z,20
2017-09-05T14:06:08.267Z,20
2017-09-05T14:07:16.926Z,20
2017-09-05T14:08:25.603Z,15
2017-09-05T14:09:35.302Z,15
2017-09-05T14:10:45.287Z,15
2017-09-05T14:11:54.424Z,15
2017-09-05T14:13:04.031Z,15
2017-09-05T14:14:12.775Z,10
2017-09-05T14:15:21.742Z,10
2017-09-05T14:16:31.014Z,10
2017-09-05T14:17:40.293Z,10
2017-09-05T14:18:49.895Z,10
2017-09-05T14:19:58.568Z,10
2017-09-05T14:21:07.578Z,10
2017-09-05T14:22:16.951Z,10
2017-09-05T14:23:25.915Z,10
2017-09-05T14:24:35.572Z,10
2017-09-05T14:25:44.528Z,10
2017-09-05T14:26:54.243Z,15
2017-09-05T14:28:03.216Z,15
2017-09-05T14:29:12.871Z,15
2017-09-05T14:30:22.550Z,15
2017-09-05T14:31:31.509Z,15
2017-09-05T14:32:40.519Z,15
2017-09-05T14:33:49.496Z,20
2017-09-05T14:34:58.482Z,20
2017-09-05T14:36:08.181Z,20
2017-09-05T14:37:16.807Z,20
2017-09-05T14:38:26.313Z,20
2017-09-05T14:39:34.957Z,20
2017-09-05T14:40:44.329Z,20
2017-09-05T14:41:53.720Z,20
2017-09-05T14:43:02.719Z,20
2017-09-05T14:44:11.704Z,20
2017-09-05T14:45:20.857Z,20
2017-09-05T14:46:30.151Z,20
2017-09-05T14:47:39.123Z,20
2017-09-05T14:48:47.896Z,25
2017-09-05T14:49:57.501Z,30
2017-09-05T14:51:07.085Z,30
2017-09-05T14:52:16.509Z,30
2017-09-05T14:53:26.309Z,30
2017-09-05T14:54:35.343Z,25
2017-09-05T14:55:44.317Z,25
2017-09-05T14:56:53.333Z,25
2017-09-05T14:58:02.667Z,20
2017-09-05T14:59:11.626Z,20
2017-09-05T15:00:20.598Z,25
2017-09-05T15:01:29.799Z,20
2017-09-05T15:02:39.732Z,20
2017-09-05T15:03:48.401Z,15
2017-09-05T15:04:57.052Z,15
2017-09-05T15:06:06.035Z,15
2017-09-05T15:07:15.336Z,15
2017-09-05T15:08:24.606Z,15
2017-09-05T15:09:33.578Z,20
2017-09-05T15:10:42.556Z,15
2017-09-05T15:11:51.820Z,15
2017-09-05T15:13:01.098Z,15
2017-09-05T15:14:11.008Z,15
2017-09-05T15:15:20.287Z,10
2017-09-05T15:16:29.280Z,10
2017-09-05T15:17:38.897Z,10
2017-09-05T15:18:48.164Z,10
2017-09-05T15:19:57.763Z,10
2017-09-05T15:21:06.718Z,10
2017-09-05T15:22:15.694Z,10
2017-09-05T15:23:24.663Z,10
2017-09-05T15:24:33.944Z,15
2017-09-05T15:25:43.543Z,15
2017-09-05T15:26:52.512Z,20
2017-09-05T15:28:01.501Z,25
2017-09-05T15:29:10.150Z,25
2017-09-05T15:30:19.423Z,30
2017-09-05T15:31:29.016Z,30
2017-09-05T15:32:37.983Z,30
2017-09-05T15:33:47.256Z,30
2017-09-05T15:34:56.229Z,30
2017-09-05T15:36:05.499Z,25
2017-09-05T15:37:14.769Z,25
2017-09-05T15:38:24.067Z,25
2017-09-05T15:39:32.713Z,25
2017-09-05T15:40:41.675Z,20
2017-09-05T15:41:50.945Z,20
2017-09-05T15:43:00.244Z,15
2017-09-05T15:44:09.518Z,15
2017-09-05T15:45:18.790Z,10
2017-09-05T15:46:27.766Z,10
2017-09-05T15:47:37.052Z,10
2017-09-05T15:48:46.651Z,10
2017-09-05T15:49:55.613Z,10
2017-09-05T15:51:04.586Z,5
2017-09-05T15:52:13.873Z,5
2017-09-05T15:53:22.850Z,5
2017-09-05T15:54:31.842Z,5
2017-09-05T15:55:40.805Z,5
2017-09-05T15:56:50.097Z,5
2017-09-05T15:57:59.077Z,10
2017-09-05T15:59:08.093Z,10
2017-09-05T16:00:17.057Z,10
2017-09-05T16:01:26.655Z,10
2017-09-05T16:02:35.308Z,10
2017-09-05T16:03:44.300Z,10
2017-09-05T16:04:53.260Z,10
2017-09-05T16:06:02.276Z,15
2017-09-05T16:07:11.577Z,15
2017-09-05T16:08:20.553Z,15
2017-09-05T16:09:29.845Z,20
2017-09-05T16:10:38.801Z,15
2017-09-05T16:11:48.102Z,15
2017-09-05T16:12:57.382Z,15
2017-09-05T16:14:06.984Z,15
2017-09-05T16:15:15.679Z,20
2017-09-05T16:16:25.290Z,20
2017-09-05T16:17:33.958Z,20
2017-09-05T16:18:42.950Z,20
2017-09-05T16:19:52.232Z,20
2017-09-05T16:21:01.834Z,20
2017-09-05T16:22:11.432Z,15
2017-09-05T16:23:20.413Z,15
2017-09-05T16:24:29.387Z,10
2017-09-05T16:25:38.671Z,10
2017-09-05T16:26:47.317Z,10
2017-09-05T16:27:56.280Z,10
2017-09-05T16:29:05.562Z,10
2017-09-05T16:30:15.162Z,10
2017-09-05T16:31:24.132Z,10
2017-09-05T16:32:33.429Z,10
2017-09-05T16:33:42.403Z,10
2017-09-05T16:34:51.053Z,5
2017-09-05T16:36:00.012Z,5
2017-09-05T16:37:08.751Z,5
2017-09-05T16:38:17.429Z,5
2017-09-05T16:39:27.365Z,5